Bei Facebook empfehlenBei Twitter postenGoogle plusPinterest

Das Wetter im Erzgebirge am 12.08.2017

Wetter und Klima am 12.08.2017 Holzhau im Erzgebirge (630m ü.NN)
Letzte gemessene Temperatur und Uhrzeit der Messung23:45:00 Uhr12.90 °C
Temperatur (Maximum / Höchstwert) und Uhrzeit der Messung17:00:00 Uhr16.90 °C
Temperatur (Minimum / Tiefstwert) und Uhrzeit der Messung05:15:0010.30 °C
Errechneter Absolutwert der Temperaturschwankungen zwischen Tmin und Tmax des Tages6.60 K
Errechnete Tagesmitteltemperatur13.00417 °C
Gesamt - Niederschlag des Tages (in flüssiger Form)0.00 Liter / m²
Luftdruck (Maximum / Höchstwert) und Zeitpunkt der Messung22:15:00 Uhr1015.50 hPa
Luftdruck (Minimum / Tiefstwert) und Zeitpunkt der Messung01:15:00 Uhr1010.00 hPa
Errechneter Absolutwert der Luftdruckschwankungen des Tages5.50 hPa
Höchste gemessene Windgeschwindigkeit und Uhrzeit der Messung18:30:00 Uhr38.88 km/h
Errechnete Windhäufigkeit in Relation zu den Messwerten des Tages22.91667 %
Niedrigste Windkühle (Windchill) und Zeitpunkt der Messung07:00:00 Uhr9.60 °C
Taupunkt (Maximum / Höchstwert) und Uhrzeit der Messung01:45:00 Uhr11.30 °C
Taupunkt (Minimum / Tiefstwert) und Uhrzeit der Messung14:45:009.10 °C
Anzahl der automatisch eingelesenen Messwerte 96

Detaillierte Wetter- und Klima- Messwerte für den 12.08.2017 in Holzhau im Erzgebirge (630m ü.NN)
ZeitTemperaturLuftdruckRel. LuftfeuchteWindWindrichtungWindchillTaupunktNiederschlag l/m²
23:45:0012.90 °C1015.30 hPa89.00 %11.10 °C 
23:30:0012.90 °C1015.20 hPa89.00 %11.10 °C 
23:15:0012.80 °C1015.20 hPa89.00 %11.00 °C 
23:00:0012.70 °C1015.40 hPa89.00 %10.90 °C 
22:45:0012.60 °C1015.30 hPa89.00 %10.80 °C 
22:30:0012.60 °C1015.10 hPa88.00 %10.70 °C 
22:15:0012.70 °C1015.50 hPa87.00 %10.60 °C 
22:00:0012.70 °C1015.40 hPa86.00 %10.40 °C 
21:45:0012.80 °C1015.50 hPa85.00 %10.30 °C 
21:30:0012.70 °C1015.30 hPa84.00 %10.10 °C 
21:15:0012.90 °C1015.30 hPa83.00 %10.10 °C 
21:00:0013.10 °C1015.30 hPa82.00 %18.00 km/hW13.30 °C10.10 °C 
20:45:0013.10 °C1015.00 hPa81.00 %9.90 °C 
20:30:0013.10 °C1014.80 hPa79.00 %9.50 °C 
20:15:0013.60 °C1014.90 hPa78.00 %9.80 °C 
20:00:0014.10 °C1014.80 hPa77.00 %10.10 °C 
19:45:0014.20 °C1014.80 hPa76.00 %10.00 °C 
19:30:0014.30 °C1014.70 hPa75.00 %9.90 °C 
19:15:0014.60 °C1014.70 hPa73.00 %9.80 °C 
19:00:0015.20 °C1014.70 hPa72.00 %10.20 °C 
18:45:0015.50 °C1014.50 hPa70.00 %30.96 km/hWSW15.40 °C10.10 °C 
18:30:0015.50 °C1014.60 hPa70.00 %38.88 km/hS15.10 °C10.10 °C 
18:15:0015.80 °C1014.70 hPa69.00 %10.10 °C 
18:00:0015.90 °C1014.70 hPa69.00 %29.88 km/hSW15.90 °C10.20 °C 
17:45:0015.90 °C1014.90 hPa68.00 %25.92 km/hSW16.10 °C10.00 °C 
17:30:0016.50 °C1015.00 hPa67.00 %10.40 °C 
17:15:0016.40 °C1014.80 hPa67.00 %10.30 °C 
17:00:0016.90 °C1014.80 hPa68.00 %11.00 °C 
16:45:0016.40 °C1014.60 hPa68.00 %10.50 °C 
16:30:0016.40 °C1014.40 hPa67.00 %7.92 km/hSW16.40 °C10.30 °C 
16:15:0016.20 °C1014.30 hPa72.00 %11.20 °C 
16:00:0015.60 °C1014.20 hPa74.00 %11.00 °C 
15:45:0015.30 °C1014.30 hPa72.00 %10.30 °C 
15:30:0014.70 °C1014.40 hPa74.00 %10.10 °C 
15:15:0014.30 °C1014.30 hPa75.00 %9.90 °C 
15:00:0013.80 °C1014.30 hPa76.00 %14.40 km/hWSW13.80 °C9.60 °C 
14:45:0013.20 °C1014.40 hPa76.00 %3.96 km/hSSW13.20 °C9.10 °C 
14:30:0013.60 °C1014.30 hPa74.00 %9.10 °C 
14:15:0014.70 °C1014.20 hPa72.00 %9.70 °C 
14:00:0015.10 °C1014.10 hPa70.00 %9.70 °C 
13:45:0014.90 °C1014.00 hPa71.00 %9.70 °C 
13:30:0015.80 °C1013.70 hPa70.00 %12.96 km/hWSW15.80 °C10.30 °C 
13:15:0015.90 °C1013.70 hPa70.00 %5.04 km/hWNW15.90 °C10.40 °C 
13:00:0016.30 °C1013.60 hPa71.00 %2.52 km/hNW16.30 °C11.00 °C 
12:45:0015.80 °C1013.50 hPa73.00 %15.48 km/hW15.80 °C11.00 °C 
12:30:0014.40 °C1013.60 hPa77.00 %10.40 °C 
12:15:0013.90 °C1013.70 hPa77.00 %9.90 °C 
12:00:0014.50 °C1013.50 hPa77.00 %10.50 °C 
11:45:0013.50 °C1013.60 hPa80.00 %10.10 °C 
11:30:0013.70 °C1013.30 hPa79.00 %5.04 km/hW13.70 °C10.10 °C 
11:15:0013.60 °C1013.30 hPa82.00 %10.60 °C 
11:00:0013.30 °C1013.20 hPa83.00 %10.50 °C 
10:45:0013.30 °C1013.10 hPa83.00 %9.00 km/hSSW13.30 °C10.50 °C 
10:30:0013.10 °C1012.90 hPa85.00 %10.60 °C 
10:15:0012.90 °C1012.70 hPa86.00 %10.60 °C 
10:00:0012.10 °C1012.30 hPa90.00 %3.96 km/hWNW12.10 °C10.50 °C 
09:45:0011.90 °C1012.10 hPa91.00 %10.50 °C 
09:30:0011.90 °C1011.80 hPa91.00 %10.50 °C 
09:15:0012.30 °C1011.40 hPa90.00 %10.70 °C 
09:00:0011.80 °C1011.20 hPa91.00 %10.40 °C 
08:45:0011.80 °C1011.20 hPa91.00 %10.40 °C 
08:30:0011.60 °C1011.00 hPa92.00 %20.88 km/hSW11.40 °C10.30 °C 
08:15:0011.50 °C1010.70 hPa92.00 %10.20 °C 
08:00:0011.20 °C1010.60 hPa93.00 %10.10 °C 
07:45:0010.80 °C1010.70 hPa93.00 %9.70 °C 
07:30:0010.70 °C1010.70 hPa93.00 %9.60 °C 
07:15:0010.60 °C1010.60 hPa93.00 %9.00 km/hSW10.60 °C9.50 °C 
07:00:0010.40 °C1010.60 hPa94.00 %27.36 km/hNW9.60 °C9.50 °C 
06:45:0010.40 °C1010.50 hPa94.00 %9.50 °C 
06:30:0010.40 °C1010.50 hPa95.00 %9.60 °C 
06:15:0010.40 °C1010.70 hPa95.00 %9.60 °C 
06:00:0010.50 °C1010.70 hPa95.00 %9.70 °C 
05:45:0010.60 °C1010.60 hPa95.00 %9.80 °C 
05:30:0010.40 °C1010.70 hPa95.00 %9.60 °C 
05:15:0010.30 °C1010.60 hPa95.00 %16.92 km/hSW10.30 °C9.50 °C 
05:00:0010.30 °C1010.50 hPa95.00 %9.50 °C 
04:45:0010.40 °C1010.60 hPa95.00 %9.60 °C 
04:30:0010.40 °C1010.60 hPa95.00 %9.00 km/hSSW10.40 °C9.60 °C 
04:15:0010.60 °C1011.00 hPa95.00 %9.80 °C 
04:00:0010.50 °C1011.00 hPa95.00 %9.70 °C 
03:45:0010.80 °C1010.90 hPa95.00 %10.00 °C 
03:30:0011.20 °C1010.80 hPa95.00 %10.40 °C 
03:15:0011.30 °C1011.00 hPa95.00 %10.50 °C 
03:00:0011.40 °C1011.10 hPa95.00 %16.92 km/hNW11.40 °C10.60 °C 
02:45:0011.60 °C1010.80 hPa95.00 %10.80 °C 
02:30:0011.80 °C1010.90 hPa95.00 %11.00 °C 
02:15:0011.90 °C1010.70 hPa95.00 %11.10 °C 
02:00:0011.90 °C1010.40 hPa95.00 %11.10 °C 
01:45:0012.10 °C1010.20 hPa95.00 %24.48 km/hSW11.70 °C11.30 °C 
01:30:0011.90 °C1010.40 hPa95.00 %11.10 °C 
01:15:0011.90 °C1010.00 hPa95.00 %11.10 °C 
01:00:0011.90 °C1010.30 hPa95.00 %11.10 °C 
00:45:0011.80 °C1010.20 hPa95.00 %11.00 °C 
00:30:0011.70 °C1010.10 hPa95.00 %10.90 °C 
00:15:0011.60 °C1010.30 hPa95.00 %10.80 °C 
00:00:0011.60 °C1010.10 hPa95.00 %10.80 °C 

Permanenter Link zu dieser Seite: Wetter im Erzgebirge am 12.08.2017
Performance-Info: Die Erstellung der Seite / Statistik(en) / Tabelle(n) erforderte 5 Datenbankserver-Abfrage(n) und dauerte 99 Millisekunden. (Dieser Messwert ist von der Gesamt-Auslastung des Servers abhängig.)
Erzgebirge - Wetter | Erzgebirge - Wetter (Mobilgeräte) | Komplette Klimadatenbank